Time;durP1;ratioP1;P1;durP2;ratioP2;P2;SDS_P1;SDS_P2;PMS_P1;PMS_P2;Temp;Humidity;BMP_temperature;BMP_pressure;BME280_temperature;BME280_humidity;BME280_pressure;Samples;Min_cycle;Max_cycle;Signal;HPM_P1;HPM_P2
2022/07/27 00:00:43;;;;;;;3.83;1.67;;;20.80;99.90;;;;;;5095316;28;20024;-86
2022/07/27 00:03:09;;;;;;;1.98;1.77;;;20.70;99.90;;;;;;5096031;28;20059;-87
2022/07/27 00:05:35;;;;;;;2.33;1.75;;;20.70;99.90;;;;;;5094806;28;20028;-85
2022/07/27 00:08:00;;;;;;;1.92;1.67;;;20.80;99.90;;;;;;5096518;28;20024;-85
2022/07/27 00:10:26;;;;;;;2.50;1.60;;;20.80;99.90;;;;;;5095455;28;20460;-86
2022/07/27 00:12:51;;;;;;;3.67;1.70;;;20.80;99.90;;;;;;5097272;28;20059;-87
2022/07/27 00:15:17;;;;;;;2.33;1.85;;;20.80;99.90;;;;;;5096050;28;20080;-85
2022/07/27 00:17:42;;;;;;;2.05;1.70;;;20.80;99.90;;;;;;5095493;28;20546;-86
2022/07/27 00:20:09;;;;;;;2.20;1.42;;;20.80;99.90;;;;;;5095744;28;20088;-86
2022/07/27 00:22:34;;;;;;;1.50;1.40;;;20.80;99.90;;;;;;5093718;28;20024;-86
2022/07/27 00:25:00;;;;;;;1.75;1.50;;;20.90;99.90;;;;;;5095095;28;20430;-86
2022/07/27 00:27:25;;;;;;;2.25;1.52;;;20.90;99.90;;;;;;5094789;28;20032;-85
2022/07/27 00:29:51;;;;;;;2.13;1.52;;;20.90;99.90;;;;;;5095489;28;20066;-82
2022/07/27 00:32:16;;;;;;;3.80;1.65;;;20.90;99.90;;;;;;5094683;28;20449;-84
2022/07/27 00:34:42;;;;;;;2.38;1.70;;;20.90;99.90;;;;;;5094292;28;20392;-86
2022/07/27 00:37:08;;;;;;;2.10;1.58;;;20.90;99.90;;;;;;5095003;28;20032;-86
2022/07/27 00:39:33;;;;;;;2.30;1.40;;;20.90;99.90;;;;;;5094450;28;20028;-85
2022/07/27 00:41:59;;;;;;;2.35;1.40;;;20.90;99.90;;;;;;5094700;28;20079;-85
2022/07/27 00:44:26;;;;;;;2.25;1.70;;;20.90;99.90;;;;;;5094907;28;20109;-84
2022/07/27 00:46:52;;;;;;;1.83;1.50;;;20.90;99.90;;;;;;5094795;28;20035;-85
2022/07/27 00:49:18;;;;;;;1.65;1.55;;;20.80;99.90;;;;;;5094291;28;20464;-86
2022/07/27 00:51:43;;;;;;;3.63;1.67;;;20.80;99.90;;;;;;5093946;28;20024;-85
2022/07/27 00:54:09;;;;;;;2.33;1.80;;;20.80;99.90;;;;;;5094615;28;20028;-86
2022/07/27 00:56:35;;;;;;;2.97;1.65;;;20.80;99.90;;;;;;5094269;28;20039;-86
2022/07/27 00:59:01;;;;;;;1.70;1.48;;;20.80;99.90;;;;;;5094613;28;20031;-86
2022/07/27 01:01:26;;;;;;;4.07;1.65;;;20.70;99.90;;;;;;5094128;28;20074;-85
2022/07/27 01:03:52;;;;;;;2.20;1.60;;;20.70;99.90;;;;;;5094003;28;20028;-86
2022/07/27 01:06:18;;;;;;;3.10;1.27;;;20.70;99.90;;;;;;5093651;28;20446;-86
2022/07/27 01:08:44;;;;;;;2.63;2.13;;;20.70;99.90;;;;;;5093677;28;20050;-86
2022/07/27 01:11:10;;;;;;;2.15;1.90;;;20.60;99.90;;;;;;5093478;28;20035;-85
2022/07/27 01:13:36;;;;;;;1.90;1.52;;;20.60;99.90;;;;;;5093308;28;20028;-86
2022/07/27 01:16:05;;;;;;;2.95;1.98;;;20.60;99.90;;;;;;5093597;28;20102;-86
2022/07/27 01:18:36;;;;;;;2.40;1.75;;;20.60;99.90;;;;;;5093087;28;20077;-85
2022/07/27 01:21:04;;;;;;;4.78;1.95;;;20.60;99.90;;;;;;5094325;28;20461;-85
2022/07/27 01:23:32;;;;;;;4.25;1.50;;;20.60;99.90;;;;;;5091842;28;20040;-86
2022/07/27 01:25:59;;;;;;;2.75;1.92;;;20.60;99.90;;;;;;5093319;28;20089;-85
2022/07/27 01:28:25;;;;;;;3.10;1.58;;;20.60;99.90;;;;;;5093435;28;20024;-83
2022/07/27 01:30:51;;;;;;;3.13;1.90;;;20.60;99.90;;;;;;5092588;28;20032;-83
2022/07/27 01:33:17;;;;;;;2.10;1.63;;;20.60;99.90;;;;;;5093170;28;20085;-85
2022/07/27 01:35:42;;;;;;;2.03;1.45;;;20.60;99.90;;;;;;5092660;28;20085;-84
2022/07/27 01:38:10;;;;;;;3.92;1.85;;;20.60;99.90;;;;;;5092284;28;20422;-85
2022/07/27 01:40:36;;;;;;;1.90;1.38;;;20.60;99.90;;;;;;5092666;28;20031;-85
2022/07/27 01:43:03;;;;;;;2.05;1.35;;;20.70;99.90;;;;;;5093122;28;20334;-85
2022/07/27 01:45:29;;;;;;;4.55;1.38;;;20.70;99.90;;;;;;5092310;28;20030;-85
2022/07/27 01:47:55;;;;;;;1.48;1.27;;;20.70;99.90;;;;;;5093321;28;20470;-85
2022/07/27 01:50:21;;;;;;;2.30;1.40;;;20.70;99.90;;;;;;5093087;28;20094;-86
2022/07/27 01:52:47;;;;;;;1.80;1.40;;;20.70;99.90;;;;;;5093116;28;20032;-85
2022/07/27 01:55:13;;;;;;;1.20;1.10;;;20.70;99.90;;;;;;5093688;28;20032;-85
2022/07/27 01:57:38;;;;;;;1.85;1.20;;;20.80;99.90;;;;;;5093252;28;20055;-84
2022/07/27 02:00:08;;;;;;;1.42;1.23;;;20.80;99.90;;;;;;5093781;28;20032;-85
2022/07/27 02:02:33;;;;;;;1.45;1.30;;;20.80;99.90;;;;;;5093378;28;20372;-85
2022/07/27 02:04:59;;;;;;;2.15;1.42;;;20.80;99.90;;;;;;5093692;28;20036;-86
2022/07/27 02:07:24;;;;;;;2.65;1.52;;;20.80;99.90;;;;;;5093741;28;20032;-85
2022/07/27 02:09:50;;;;;;;2.28;1.23;;;20.80;99.90;;;;;;5096007;28;20103;-85
2022/07/27 02:12:34;;;;;;;2.00;1.42;;;20.80;99.90;;;;;;5097161;28;20031;-86
2022/07/27 02:15:01;;;;;;;3.85;1.58;;;20.80;99.90;;;;;;5097774;28;20107;-86
2022/07/27 02:17:27;;;;;;;2.53;1.50;;;20.90;99.90;;;;;;5097140;28;20468;-85
2022/07/27 02:19:52;;;;;;;2.40;1.70;;;20.90;99.90;;;;;;5097773;28;20070;-84
2022/07/27 02:22:18;;;;;;;1.30;1.20;;;20.90;99.90;;;;;;5097519;28;20020;-84
2022/07/27 02:24:43;;;;;;;1.70;1.20;;;20.90;99.90;;;;;;5096700;28;20032;-84
2022/07/27 02:27:09;;;;;;;1.85;1.60;;;20.90;99.90;;;;;;5097489;28;20028;-85
2022/07/27 02:29:34;;;;;;;2.38;1.35;;;20.90;99.90;;;;;;5097157;28;20492;-84
2022/07/27 02:32:00;;;;;;;1.05;0.95;;;20.80;99.90;;;;;;5097470;28;20024;-84
2022/07/27 02:34:26;;;;;;;2.33;1.30;;;20.80;99.90;;;;;;5097451;28;20032;-84
2022/07/27 02:36:51;;;;;;;1.67;1.20;;;20.80;99.90;;;;;;5096472;28;20028;-86
2022/07/27 02:39:17;;;;;;;1.50;1.20;;;20.80;99.90;;;;;;5096785;28;20024;-84
2022/07/27 02:41:45;;;;;;;1.30;1.00;;;20.80;99.90;;;;;;5096578;28;20028;-85
2022/07/27 02:44:13;;;;;;;1.75;1.30;;;20.80;99.90;;;;;;5096708;28;20028;-85
2022/07/27 02:46:39;;;;;;;1.40;1.30;;;20.80;99.90;;;;;;5096196;28;20032;-85
2022/07/27 02:49:05;;;;;;;1.25;1.00;;;20.80;99.90;;;;;;5096791;28;20511;-85
2022/07/27 02:51:30;;;;;;;1.20;1.10;;;20.80;99.90;;;;;;5096393;28;20055;-86
2022/07/27 02:53:56;;;;;;;5.30;1.48;;;20.80;99.90;;;;;;5095515;28;20052;-86
2022/07/27 02:56:21;;;;;;;2.45;1.27;;;20.80;99.90;;;;;;5096482;28;20028;-86
2022/07/27 02:58:47;;;;;;;1.27;1.17;;;20.70;99.90;;;;;;5096487;28;20486;-86
2022/07/27 03:01:13;;;;;;;2.63;1.77;;;20.70;99.90;;;;;;5095290;28;20141;-87
2022/07/27 03:03:40;;;;;;;1.58;1.30;;;20.70;99.90;;;;;;5096354;28;20474;-87
2022/07/27 03:06:06;;;;;;;1.67;1.23;;;20.60;99.90;;;;;;5096369;28;20044;-87
2022/07/27 03:08:32;;;;;;;1.55;1.15;;;20.70;99.90;;;;;;5097158;28;20110;-87
2022/07/27 03:10:58;;;;;;;2.55;1.60;;;20.70;99.90;;;;;;5096389;28;20032;-87
2022/07/27 03:13:25;;;;;;;1.23;1.00;;;20.70;99.90;;;;;;5096558;28;20039;-87
2022/07/27 03:15:51;;;;;;;1.45;1.15;;;20.70;99.90;;;;;;5096290;28;20028;-87
2022/07/27 03:18:16;;;;;;;1.55;1.30;;;20.70;99.90;;;;;;5096651;28;20363;-87
2022/07/27 03:20:42;;;;;;;1.20;1.10;;;20.70;99.90;;;;;;5094766;28;20544;-86
2022/07/27 03:23:08;;;;;;;2.50;1.50;;;20.70;99.90;;;;;;5095271;28;20036;-87
2022/07/27 03:25:34;;;;;;;2.10;1.35;;;20.60;99.90;;;;;;5096672;28;20024;-86
2022/07/27 03:27:59;;;;;;;1.90;1.65;;;20.60;99.90;;;;;;5095656;28;20032;-87
2022/07/27 03:30:26;;;;;;;2.47;1.50;;;20.60;99.90;;;;;;5096110;28;20040;-86
2022/07/27 03:32:51;;;;;;;2.20;1.58;;;20.60;99.90;;;;;;5095449;28;20453;-86
2022/07/27 03:35:17;;;;;;;2.33;1.70;;;20.60;99.90;;;;;;5095971;28;20131;-85
2022/07/27 03:37:42;;;;;;;7.05;1.75;;;20.50;99.90;;;;;;5095518;28;20040;-85
2022/07/27 03:40:10;;;;;;;1.95;1.50;;;20.50;99.90;;;;;;5095708;28;20461;-85
2022/07/27 03:42:36;;;;;;;4.38;1.40;;;20.50;99.90;;;;;;5095373;28;20028;-84
2022/07/27 03:45:02;;;;;;;1.67;1.40;;;20.50;99.90;;;;;;5095618;28;20525;-85
2022/07/27 03:47:27;;;;;;;3.53;1.90;;;20.50;99.90;;;;;;5094295;28;20059;-86
2022/07/27 03:49:53;;;;;;;1.98;1.50;;;20.50;99.90;;;;;;5092264;28;20100;-85
2022/07/27 03:52:19;;;;;;;1.85;1.33;;;20.50;99.90;;;;;;5095158;28;20024;-85
2022/07/27 03:54:46;;;;;;;2.05;1.50;;;20.50;99.90;;;;;;5095703;28;20070;-85
2022/07/27 03:57:12;;;;;;;1.98;1.50;;;20.50;99.90;;;;;;5095755;28;20106;-85
2022/07/27 03:59:38;;;;;;;2.53;1.60;;;20.50;99.90;;;;;;5095144;28;20119;-81
2022/07/27 04:02:04;;;;;;;2.03;1.42;;;20.50;99.90;;;;;;5095535;28;20028;-85
2022/07/27 04:04:30;;;;;;;3.38;2.60;;;20.50;99.90;;;;;;5095826;28;20056;-86
2022/07/27 04:06:56;;;;;;;2.47;1.50;;;20.50;99.90;;;;;;5094564;28;20067;-85
2022/07/27 04:09:21;;;;;;;2.55;1.88;;;20.50;99.90;;;;;;5095183;28;20032;-84
2022/07/27 04:11:47;;;;;;;6.35;2.00;;;20.40;99.90;;;;;;5094808;28;20456;-85
2022/07/27 04:14:13;;;;;;;2.00;1.60;;;20.50;99.90;;;;;;5095081;28;20090;-84
2022/07/27 04:16:38;;;;;;;2.17;1.50;;;20.50;99.90;;;;;;5095531;28;20101;-77
2022/07/27 04:19:05;;;;;;;3.05;1.70;;;20.50;99.90;;;;;;5095082;28;20444;-85
2022/07/27 04:21:30;;;;;;;4.13;2.03;;;20.50;99.90;;;;;;5095365;28;20436;-83
2022/07/27 04:23:56;;;;;;;3.75;2.55;;;20.60;99.90;;;;;;5094732;28;20055;-88
2022/07/27 04:26:22;;;;;;;3.45;2.13;;;20.60;99.90;;;;;;5095013;28;20465;-86
2022/07/27 04:28:48;;;;;;;4.32;2.47;;;20.70;99.90;;;;;;5095283;28;20044;-83
2022/07/27 04:31:13;;;;;;;2.45;2.00;;;20.70;99.90;;;;;;5094604;28;20050;-90
2022/07/27 04:33:39;;;;;;;2.20;1.75;;;20.80;99.90;;;;;;5088179;28;20020;-86
2022/07/27 04:36:08;;;;;;;2.83;2.55;;;20.90;99.90;;;;;;5092375;28;20109;-78
2022/07/27 04:38:34;;;;;;;3.47;2.33;;;21.00;99.90;;;;;;5090718;28;20465;-78
2022/07/27 04:40:59;;;;;;;2.72;2.22;;;21.10;99.90;;;;;;5073185;28;20445;-82
2022/07/27 04:43:25;;;;;;;3.22;2.22;;;21.20;99.90;;;;;;5074257;28;20036;-78
2022/07/27 04:45:51;;;;;;;3.78;2.60;;;21.30;99.90;;;;;;5073165;28;20025;-78
2022/07/27 04:48:16;;;;;;;4.93;2.47;;;21.40;99.90;;;;;;5073825;28;20064;-79
2022/07/27 04:50:44;;;;;;;2.25;1.92;;;21.50;99.90;;;;;;5073612;28;20063;-78
2022/07/27 04:53:11;;;;;;;3.20;2.65;;;21.70;99.90;;;;;;5073756;28;20090;-80
2022/07/27 04:55:40;;;;;;;3.03;2.33;;;21.80;99.90;;;;;;5073641;28;20031;-78
2022/07/27 04:58:06;;;;;;;2.17;1.92;;;22.00;99.50;;;;;;5075786;28;20056;-79
2022/07/27 05:00:32;;;;;;;3.28;1.90;;;22.20;98.90;;;;;;5093829;28;20056;-79
2022/07/27 05:02:57;;;;;;;2.13;1.35;;;22.30;96.30;;;;;;5092095;28;20032;-79
2022/07/27 05:05:23;;;;;;;1.80;1.30;;;22.60;96.50;;;;;;5093633;28;20028;-78
2022/07/27 05:07:49;;;;;;;2.42;1.45;;;22.70;95.00;;;;;;5092885;28;20043;-77
2022/07/27 05:10:14;;;;;;;2.95;1.10;;;22.80;93.80;;;;;;5093478;28;20452;-78
2022/07/27 05:12:40;;;;;;;2.30;1.35;;;22.90;93.00;;;;;;5093622;28;20070;-78
2022/07/27 05:15:06;;;;;;;1.63;1.20;;;23.10;92.90;;;;;;5093124;28;20024;-79
2022/07/27 05:17:33;;;;;;;2.20;1.48;;;23.30;92.20;;;;;;5093471;28;20080;-76
2022/07/27 05:19:59;;;;;;;1.88;1.23;;;23.50;91.40;;;;;;5092909;28;20452;-77
2022/07/27 05:22:24;;;;;;;1.17;1.00;;;23.50;90.00;;;;;;5091808;28;20103;-79
2022/07/27 05:24:50;;;;;;;0.98;0.90;;;23.70;88.20;;;;;;5092743;28;20028;-78
2022/07/27 05:27:16;;;;;;;5.45;1.20;;;23.90;86.80;;;;;;5092791;28;20040;-76
2022/07/27 05:29:41;;;;;;;2.80;1.20;;;24.20;85.50;;;;;;5093263;28;20097;-78
2022/07/27 05:32:07;;;;;;;1.58;1.13;;;24.50;85.60;;;;;;5092926;28;20457;-78
2022/07/27 05:34:32;;;;;;;1.30;1.00;;;24.80;81.80;;;;;;5093131;28;20040;-80
2022/07/27 05:36:58;;;;;;;2.72;1.15;;;25.10;81.00;;;;;;5092340;28;20392;-79
2022/07/27 05:39:24;;;;;;;1.67;1.38;;;25.50;80.00;;;;;;5092985;28;20028;-78
2022/07/27 05:41:49;;;;;;;1.23;1.13;;;25.80;78.30;;;;;;5091915;28;20052;-78
2022/07/27 05:44:15;;;;;;;1.25;1.15;;;26.20;75.40;;;;;;5091652;28;20028;-78
2022/07/27 05:46:40;;;;;;;2.55;1.42;;;26.50;72.80;;;;;;5092576;28;20115;-78
2022/07/27 05:49:06;;;;;;;1.50;1.25;;;27.00;73.40;;;;;;5092372;28;20034;-78
2022/07/27 05:51:32;;;;;;;1.58;1.25;;;27.40;70.50;;;;;;5092604;28;20438;-78
2022/07/27 05:53:58;;;;;;;1.52;1.33;;;28.00;69.40;;;;;;5092703;28;20035;-78
2022/07/27 05:56:23;;;;;;;2.97;2.08;;;28.50;65.00;;;;;;5092450;28;20087;-78
2022/07/27 05:58:49;;;;;;;3.05;2.13;;;29.30;65.60;;;;;;5091904;28;20484;-77
2022/07/27 06:01:15;;;;;;;4.07;2.30;;;30.10;63.80;;;;;;5092759;28;20021;-78
2022/07/27 06:03:41;;;;;;;2.85;2.03;;;30.90;60.80;;;;;;5092513;28;20438;-78
2022/07/27 06:08:51;;;;;;;4.30;3.00;;;31.80;56.40;;;;;;5092703;28;20483;-77
2022/07/27 06:11:16;;;;;;;5.07;2.80;;;31.30;57.10;;;;;;5092772;28;20060;-78
2022/07/27 06:13:42;;;;;;;5.00;2.97;;;31.50;58.80;;;;;;5092714;28;20212;-76
2022/07/27 06:16:08;;;;;;;3.13;2.53;;;32.30;56.40;;;;;;5092278;28;20036;-77
2022/07/27 06:18:34;;;;;;;3.15;2.85;;;32.80;54.00;;;;;;5092392;28;20433;-78
2022/07/27 06:21:01;;;;;;;3.78;2.70;;;33.20;52.80;;;;;;5092218;28;20170;-77
2022/07/27 06:23:28;;;;;;;4.10;2.92;;;33.60;51.30;;;;;;5092732;28;20106;-78
2022/07/27 06:25:54;;;;;;;4.57;2.90;;;33.60;51.20;;;;;;5091980;28;20032;-78
2022/07/27 06:28:20;;;;;;;5.95;3.20;;;33.80;50.90;;;;;;5092002;28;20111;-77
2022/07/27 06:30:46;;;;;;;3.92;3.22;;;33.40;51.60;;;;;;5092022;28;20124;-77
2022/07/27 06:33:13;;;;;;;3.95;3.55;;;33.20;52.10;;;;;;5092487;28;20586;-77
2022/07/27 06:35:39;;;;;;;5.57;3.80;;;32.80;52.80;;;;;;5092349;28;20079;-77
2022/07/27 06:38:06;;;;;;;5.05;4.15;;;32.50;53.70;;;;;;5090526;28;20048;-77
2022/07/27 06:40:32;;;;;;;4.68;3.78;;;32.20;54.50;;;;;;5092222;28;20123;-76
2022/07/27 06:42:58;;;;;;;7.07;3.40;;;31.90;54.60;;;;;;5091675;28;20055;-77
2022/07/27 06:45:26;;;;;;;4.05;3.65;;;31.80;54.90;;;;;;5092090;28;20472;-77
2022/07/27 06:47:51;;;;;;;5.90;4.00;;;31.60;55.20;;;;;;5091495;28;20042;-77
2022/07/27 06:50:19;;;;;;;3.45;2.95;;;31.60;55.10;;;;;;5091667;28;20102;-77
2022/07/27 06:52:45;;;;;;;2.88;2.58;;;31.60;55.30;;;;;;5091533;28;20060;-77
2022/07/27 06:55:11;;;;;;;3.58;3.28;;;31.70;54.90;;;;;;5093139;28;20039;-77
2022/07/27 06:57:37;;;;;;;3.45;3.15;;;31.90;55.50;;;;;;5095822;28;20387;-77
2022/07/27 07:00:04;;;;;;;6.60;3.80;;;32.30;54.20;;;;;;5095065;28;20107;-77
2022/07/27 07:02:30;;;;;;;5.85;3.72;;;32.70;53.40;;;;;;5095641;28;20020;-76
2022/07/27 07:04:55;;;;;;;2.88;2.50;;;33.20;52.30;;;;;;5095399;28;20494;-77
2022/07/27 07:07:21;;;;;;;4.45;2.85;;;33.70;50.20;;;;;;5095725;28;20532;-75
2022/07/27 07:09:47;;;;;;;3.70;2.33;;;34.00;49.70;;;;;;5095105;28;20115;-77
2022/07/27 07:12:13;;;;;;;4.40;3.33;;;34.30;49.00;;;;;;5095461;28;20325;-77
2022/07/27 07:14:38;;;;;;;3.33;2.13;;;34.40;48.10;;;;;;5095466;28;20453;-77
2022/07/27 07:17:04;;;;;;;4.32;2.10;;;34.20;47.20;;;;;;5094750;28;20268;-77
2022/07/27 07:19:29;;;;;;;4.03;2.10;;;35.10;47.50;;;;;;5095251;28;20035;-76
2022/07/27 07:21:55;;;;;;;2.17;1.90;;;35.50;45.20;;;;;;5074567;28;20095;-76
2022/07/27 07:24:21;;;;;;;3.97;1.60;;;35.90;45.10;;;;;;5075264;28;20024;-77
2022/07/27 07:26:46;;;;;;;2.70;1.88;;;36.80;43.80;;;;;;5074464;28;20036;-74
2022/07/27 07:29:12;;;;;;;2.38;1.67;;;37.60;42.10;;;;;;5075116;28;20048;-76
2022/07/27 07:31:38;;;;;;;1.73;1.45;;;37.90;40.90;;;;;;5074943;28;20032;-76
2022/07/27 07:34:04;;;;;;;2.67;1.60;;;37.50;42.20;;;;;;5074801;28;20037;-76
2022/07/27 07:36:29;;;;;;;3.40;1.95;;;37.50;41.40;;;;;;5075054;28;20028;-76
2022/07/27 07:38:55;;;;;;;1.85;1.70;;;37.60;41.00;;;;;;5079006;28;20111;-75
2022/07/27 07:41:24;;;;;;;2.80;2.20;;;37.00;40.70;;;;;;5095425;28;20028;-76
2022/07/27 07:43:49;;;;;;;1.98;1.65;;;37.20;41.60;;;;;;5094643;28;20361;-75
2022/07/27 07:46:15;;;;;;;2.63;1.70;;;36.70;41.10;;;;;;5095149;28;20032;-76
2022/07/27 07:48:42;;;;;;;3.00;1.83;;;37.10;41.60;;;;;;5095362;28;20500;-76
2022/07/27 07:51:08;;;;;;;2.58;2.10;;;37.70;41.80;;;;;;5094848;28;20100;-77
2022/07/27 07:53:34;;;;;;;2.15;1.83;;;38.70;40.10;;;;;;5094958;28;20035;-77
2022/07/27 07:56:00;;;;;;;3.00;1.90;;;39.20;39.50;;;;;;5094833;28;20342;-76
2022/07/27 07:58:26;;;;;;;2.70;1.88;;;40.00;39.40;;;;;;5095004;28;20068;-77
2022/07/27 08:00:51;;;;;;;2.58;2.05;;;40.50;37.60;;;;;;5094152;28;20092;-76
2022/07/27 08:03:18;;;;;;;2.88;2.17;;;40.00;37.90;;;;;;5094795;28;20031;-76
2022/07/27 08:05:43;;;;;;;2.75;2.08;;;40.00;37.60;;;;;;5094795;28;20035;-77
2022/07/27 08:08:09;;;;;;;2.67;1.98;;;40.40;37.60;;;;;;5093553;28;20035;-76
2022/07/27 08:10:35;;;;;;;2.13;1.85;;;40.80;36.40;;;;;;5094697;28;20090;-76
2022/07/27 08:13:01;;;;;;;1.75;1.60;;;41.30;36.50;;;;;;5094270;28;20021;-76
2022/07/27 08:15:27;;;;;;;3.00;2.20;;;41.70;36.30;;;;;;5094735;28;20028;-76
2022/07/27 08:17:52;;;;;;;2.35;1.92;;;41.70;35.50;;;;;;5094185;28;20024;-75
2022/07/27 08:20:18;;;;;;;2.60;1.70;;;41.60;35.30;;;;;;5094635;28;20074;-75
2022/07/27 08:22:44;;;;;;;2.75;2.10;;;42.00;35.10;;;;;;5094491;28;20028;-75
2022/07/27 08:25:10;;;;;;;1.98;1.70;;;42.10;34.60;;;;;;5094078;28;20042;-76
2022/07/27 08:27:36;;;;;;;4.15;2.67;;;42.00;34.10;;;;;;5094256;28;20032;-78
2022/07/27 08:30:04;;;;;;;3.13;2.33;;;42.00;34.40;;;;;;5094119;28;20160;-77
2022/07/27 08:32:29;;;;;;;3.25;1.83;;;41.50;33.90;;;;;;5093408;28;20100;-76
2022/07/27 08:34:55;;;;;;;3.70;2.08;;;41.20;34.70;;;;;;5093719;28;20465;-75
2022/07/27 08:37:21;;;;;;;2.83;2.10;;;40.40;35.50;;;;;;5094224;28;20081;-76
2022/07/27 08:39:47;;;;;;;4.60;1.73;;;40.10;35.80;;;;;;5094000;28;20102;-77
2022/07/27 08:42:13;;;;;;;3.20;2.17;;;40.10;36.80;;;;;;5093313;28;20028;-76
2022/07/27 08:44:40;;;;;;;3.65;2.50;;;39.90;36.40;;;;;;5094154;28;20468;-76
2022/07/27 08:47:08;;;;;;;2.45;2.03;;;39.00;36.90;;;;;;5093229;28;20093;-76
2022/07/27 08:49:36;;;;;;;2.65;2.20;;;38.80;38.30;;;;;;5093960;28;20020;-77
2022/07/27 08:52:03;;;;;;;4.22;2.20;;;38.90;37.90;;;;;;5093626;28;20036;-76
2022/07/27 08:54:30;;;;;;;3.85;2.47;;;39.00;37.80;;;;;;5094158;28;20024;-76
2022/07/27 08:56:55;;;;;;;4.03;2.40;;;38.80;37.80;;;;;;5093455;28;20039;-74
2022/07/27 08:59:21;;;;;;;2.70;2.35;;;38.80;37.90;;;;;;5093843;28;20028;-76
2022/07/27 09:01:47;;;;;;;2.50;2.05;;;38.60;38.20;;;;;;5093761;28;20035;-77
2022/07/27 09:04:13;;;;;;;4.00;2.35;;;37.80;39.10;;;;;;5093413;28;20093;-77
2022/07/27 09:06:46;;;;;;;2.60;2.40;;;37.20;40.10;;;;;;5093620;28;20024;-76
2022/07/27 09:09:14;;;;;;;3.10;2.33;;;36.40;40.60;;;;;;5093393;28;20792;-75
2022/07/27 09:11:40;;;;;;;4.60;2.28;;;35.70;41.50;;;;;;5093699;28;20024;-76
2022/07/27 09:14:08;;;;;;;3.65;2.22;;;35.00;42.40;;;;;;5092812;28;20027;-76
2022/07/27 09:16:35;;;;;;;3.05;2.60;;;34.50;43.60;;;;;;5093471;28;20063;-76
2022/07/27 09:19:06;;;;;;;3.95;2.38;;;33.90;44.80;;;;;;5093060;28;20050;-76
2022/07/27 09:21:33;;;;;;;2.95;2.65;;;33.60;45.00;;;;;;5093599;28;20058;-76
2022/07/27 09:24:12;;;;;;;3.00;2.60;;;33.20;45.70;;;;;;5092954;28;20031;-75
2022/07/27 09:26:38;;;;;;;3.38;2.53;;;32.80;46.60;;;;;;5093099;28;20077;-76
2022/07/27 09:29:08;;;;;;;5.47;2.53;;;32.50;47.10;;;;;;5092596;28;20480;-74
2022/07/27 09:31:44;;;;;;;7.07;3.20;;;32.40;47.80;;;;;;5092949;28;20032;-77
2022/07/27 09:34:11;;;;;;;3.08;2.78;;;32.00;48.90;;;;;;5092702;28;20028;-76
2022/07/27 09:36:54;;;;;;;2.95;2.65;;;31.80;48.90;;;;;;5093271;28;20063;-75
2022/07/27 09:39:22;;;;;;;6.65;3.60;;;31.60;49.40;;;;;;5092841;28;20024;-75
2022/07/27 09:41:51;;;;;;;5.75;3.35;;;31.40;49.90;;;;;;5092188;28;20081;-75
2022/07/27 09:44:30;;;;;;;2.97;2.60;;;31.10;51.50;;;;;;5092490;28;20031;-75
2022/07/27 09:46:56;;;;;;;3.22;2.35;;;31.20;51.40;;;;;;5092467;28;20473;-74
2022/07/27 09:49:30;;;;;;;3.97;2.65;;;31.10;51.00;;;;;;5092511;28;20078;-75
2022/07/27 09:51:56;;;;;;;3.10;2.70;;;31.00;51.30;;;;;;5091282;28;20055;-73
2022/07/27 09:54:23;;;;;;;4.60;3.60;;;31.00;51.50;;;;;;5093130;28;20028;-75
2022/07/27 09:57:00;;;;;;;4.40;3.22;;;30.80;51.10;;;;;;5093219;28;20032;-76
2022/07/27 09:59:26;;;;;;;4.30;2.83;;;30.70;52.30;;;;;;5092892;28;20035;-76
2022/07/27 10:01:53;;;;;;;4.15;2.80;;;30.70;52.20;;;;;;5092501;28;20105;-76
2022/07/27 10:04:19;;;;;;;3.83;2.60;;;30.70;52.20;;;;;;5092466;28;20024;-75
2022/07/27 10:06:45;;;;;;;2.58;2.38;;;30.70;52.40;;;;;;5092669;28;20100;-76
2022/07/27 10:09:11;;;;;;;4.05;2.88;;;30.60;52.20;;;;;;5092367;28;20055;-76
2022/07/27 10:11:38;;;;;;;2.85;2.53;;;30.40;52.40;;;;;;5092734;28;20478;-76
2022/07/27 10:14:04;;;;;;;4.90;3.47;;;30.30;53.10;;;;;;5092234;28;20123;-75
2022/07/27 10:16:31;;;;;;;3.90;3.50;;;30.30;53.10;;;;;;5092644;28;20032;-75
2022/07/27 10:19:22;;;;;;;3.88;3.17;;;30.40;53.90;;;;;;5092715;28;20081;-73
2022/07/27 10:21:48;;;;;;;4.13;3.15;;;30.30;53.00;;;;;;5092318;28;20439;-75
2022/07/27 10:24:35;;;;;;;3.45;2.40;;;30.30;53.70;;;;;;5092003;28;20111;-75
2022/07/27 10:27:18;;;;;;;4.78;2.50;;;30.30;53.30;;;;;;5091944;28;20040;-74
2022/07/27 10:29:50;;;;;;;3.97;3.08;;;30.20;53.50;;;;;;5092768;28;20076;-75
2022/07/27 10:32:32;;;;;;;4.15;3.10;;;30.00;54.10;;;;;;5096005;28;20024;-76
2022/07/27 10:35:00;;;;;;;3.42;3.10;;;30.00;54.50;;;;;;5096127;28;20547;-76
2022/07/27 10:37:33;;;;;;;3.78;3.40;;;30.00;54.50;;;;;;5096174;28;20048;-76
2022/07/27 10:42:48;;;;;;;4.18;3.17;;;29.80;55.20;;;;;;5096324;28;20034;-77
2022/07/27 10:45:16;;;;;;;4.95;2.90;;;29.80;54.60;;;;;;5095868;28;20149;-75
2022/07/27 10:47:45;;;;;;;4.88;3.10;;;29.60;54.70;;;;;;5096158;28;20173;-77
2022/07/27 10:50:14;;;;;;;3.25;2.95;;;29.50;54.90;;;;;;5095455;28;20028;-76
2022/07/27 10:52:50;;;;;;;3.70;3.00;;;29.40;55.10;;;;;;5096274;28;20516;-76
2022/07/27 10:55:35;;;;;;;3.50;2.42;;;29.20;56.10;;;;;;5095573;28;20047;-75
2022/07/27 10:58:09;;;;;;;3.13;2.70;;;29.10;55.70;;;;;;5095536;28;20088;-74
2022/07/27 11:00:50;;;;;;;3.15;2.85;;;29.00;55.90;;;;;;5096323;28;20436;-75
2022/07/27 11:03:24;;;;;;;;;;;28.90;56.60;;;;;;5096036;28;20482;-76
2022/07/27 11:06:26;;;;;;;6.25;3.33;;;28.70;56.60;;;;;;5095948;28;19904;-76
2022/07/27 11:08:52;;;;;;;4.90;3.42;;;28.60;57.10;;;;;;5033433;28;20508;-76
2022/07/27 11:11:24;;;;;;;6.32;3.10;;;28.40;57.40;;;;;;5083038;28;20521;-76
2022/07/27 11:13:59;;;;;;;3.95;3.10;;;28.40;57.80;;;;;;5095763;28;20016;-75
2022/07/27 11:16:27;;;;;;;4.75;3.65;;;28.40;58.00;;;;;;5095209;28;20024;-76
2022/07/27 11:19:05;;;;;;;3.97;2.92;;;28.30;58.70;;;;;;5095432;28;20028;-76
2022/07/27 11:21:35;;;;;;;3.13;2.50;;;28.30;58.70;;;;;;5095678;28;20032;-75
2022/07/27 11:24:10;;;;;;;6.32;4.03;;;28.30;59.20;;;;;;5095685;28;20028;-76
2022/07/27 11:26:42;;;;;;;4.50;3.72;;;28.30;58.90;;;;;;5095671;28;20040;-76
2022/07/27 11:29:09;;;;;;;6.82;3.47;;;28.30;58.90;;;;;;5094988;28;20036;-75
2022/07/27 11:31:36;;;;;;;4.57;3.60;;;28.20;59.00;;;;;;5095333;28;20024;-76
2022/07/27 11:34:02;;;;;;;4.10;3.50;;;28.20;59.50;;;;;;5095421;28;20517;-77
2022/07/27 11:36:41;;;;;;;5.85;4.10;;;28.20;59.50;;;;;;5095165;28;20103;-76
2022/07/27 11:39:27;;;;;;;5.63;3.42;;;28.10;60.20;;;;;;5094630;28;20491;-76
2022/07/27 11:41:55;;;;;;;4.05;3.50;;;28.00;60.80;;;;;;5094220;28;20103;-76
2022/07/27 11:44:21;;;;;;;5.10;3.85;;;27.90;61.60;;;;;;5093622;28;20073;-77
2022/07/27 11:46:48;;;;;;;4.15;3.47;;;27.80;62.20;;;;;;5094794;28;20044;-75
2022/07/27 11:49:16;;;;;;;4.22;3.83;;;27.80;63.00;;;;;;5094738;28;20036;-77
2022/07/27 11:51:44;;;;;;;4.53;4.13;;;27.80;66.30;;;;;;5095354;28;20372;-76
2022/07/27 11:54:19;;;;;;;3.03;2.30;;;27.60;68.80;;;;;;5094896;28;20039;-77
2022/07/27 11:56:48;;;;;;;1.95;1.65;;;26.90;64.80;;;;;;5094504;28;20042;-76
2022/07/27 11:59:19;;;;;;;2.70;1.17;;;26.30;61.90;;;;;;5094613;28;20024;-76
2022/07/27 12:02:00;;;;;;;2.63;1.50;;;25.90;62.00;;;;;;5095089;28;20032;-76
2022/07/27 12:04:29;;;;;;;;;;;25.20;65.60;;;;;;5095086;28;20028;-77
2022/07/27 12:06:57;;;;;;;2.03;1.13;;;24.70;63.10;;;;;;5094953;28;19965;-76
2022/07/27 12:09:23;;;;;;;1.90;1.30;;;24.30;67.90;;;;;;5094189;28;20384;-76
2022/07/27 12:11:52;;;;;;;2.08;1.20;;;24.10;72.30;;;;;;5094843;28;20052;-76
2022/07/27 12:14:28;;;;;;;2.80;1.60;;;24.00;71.40;;;;;;5094428;28;20042;-75
2022/07/27 12:17:24;;;;;;;1.23;1.13;;;23.90;71.00;;;;;;5094797;28;20115;-76
2022/07/27 12:19:52;;;;;;;2.13;1.30;;;23.90;73.80;;;;;;5094517;28;20376;-77
2022/07/27 12:22:44;;;;;;;1.65;1.25;;;23.90;75.00;;;;;;5094228;28;20028;-77
2022/07/27 12:25:13;;;;;;;1.52;1.20;;;23.90;77.20;;;;;;5094266;28;20114;-75
2022/07/27 12:27:39;;;;;;;1.58;1.20;;;24.00;78.80;;;;;;5094415;28;20376;-76
2022/07/27 12:30:12;;;;;;;1.77;1.40;;;24.00;78.30;;;;;;5093983;28;20052;-76
2022/07/27 12:32:43;;;;;;;2.13;1.40;;;24.10;76.90;;;;;;5094555;28;20032;-78
2022/07/27 12:35:19;;;;;;;1.90;1.30;;;24.20;75.70;;;;;;5094037;28;20020;-74
2022/07/27 12:37:45;;;;;;;1.45;1.02;;;24.20;72.20;;;;;;5094259;28;20081;-76
2022/07/27 12:40:18;;;;;;;4.80;1.40;;;24.20;70.30;;;;;;5093675;28;20027;-76
2022/07/27 12:42:44;;;;;;;3.45;1.95;;;24.40;71.30;;;;;;5094189;28;20032;-76
2022/07/27 12:45:18;;;;;;;1.75;1.35;;;24.40;72.80;;;;;;5093817;28;20084;-76
2022/07/27 12:47:44;;;;;;;4.10;1.50;;;24.50;72.40;;;;;;5093996;28;20456;-77
2022/07/27 12:50:14;;;;;;;2.88;1.40;;;24.50;73.80;;;;;;5093762;28;20031;-76
2022/07/27 12:52:49;;;;;;;1.58;1.30;;;24.70;71.80;;;;;;5093686;28;20046;-76
2022/07/27 12:55:17;;;;;;;5.18;1.75;;;24.80;73.90;;;;;;5093691;28;20055;-75